sensor_id;sensor_type;location;lat;lon;timestamp;pressure;altitude;pressure_sealevel;temperature;humidity
13434;BME280;6789;47.678;9.158;2023-04-26T00:04:16;96757.47;;;7.28;100.00
13434;BME280;6789;47.678;9.158;2023-04-26T00:09:08;96745.00;;;7.37;100.00
13434;BME280;6789;47.678;9.158;2023-04-26T00:14:00;96756.25;;;7.24;100.00
13434;BME280;6789;47.678;9.158;2023-04-26T00:18:51;96761.88;;;7.08;100.00
13434;BME280;6789;47.678;9.158;2023-04-26T00:23:45;96771.50;;;7.02;100.00
13434;BME280;6789;47.678;9.158;2023-04-26T00:28:37;96770.91;;;6.93;100.00
13434;BME280;6789;47.678;9.158;2023-04-26T00:33:28;96765.88;;;6.85;100.00
13434;BME280;6789;47.678;9.158;2023-04-26T00:38:21;96756.06;;;6.81;100.00
13434;BME280;6789;47.678;9.158;2023-04-26T00:43:29;96755.47;;;6.79;100.00
13434;BME280;6789;47.678;9.158;2023-04-26T00:48:21;96756.25;;;6.73;100.00
13434;BME280;6789;47.678;9.158;2023-04-26T00:53:15;96741.41;;;6.67;100.00
13434;BME280;6789;47.678;9.158;2023-04-26T00:58:06;96754.25;;;6.62;100.00
13434;BME280;6789;47.678;9.158;2023-04-26T01:02:58;96744.03;;;6.54;100.00
13434;BME280;6789;47.678;9.158;2023-04-26T01:07:51;96743.00;;;6.48;100.00
13434;BME280;6789;47.678;9.158;2023-04-26T01:12:43;96746.81;;;6.46;100.00
13434;BME280;6789;47.678;9.158;2023-04-26T01:17:35;96744.81;;;6.54;100.00
13434;BME280;6789;47.678;9.158;2023-04-26T01:22:33;96746.63;;;6.54;100.00
13434;BME280;6789;47.678;9.158;2023-04-26T01:27:25;96753.03;;;6.45;100.00
13434;BME280;6789;47.678;9.158;2023-04-26T01:32:17;96757.63;;;6.56;100.00
13434;BME280;6789;47.678;9.158;2023-04-26T01:37:09;96750.63;;;6.50;100.00
13434;BME280;6789;47.678;9.158;2023-04-26T01:42:02;96756.66;;;6.63;100.00
13434;BME280;6789;47.678;9.158;2023-04-26T01:46:55;96753.44;;;6.68;100.00
13434;BME280;6789;47.678;9.158;2023-04-26T01:51:46;96753.06;;;6.71;100.00
13434;BME280;6789;47.678;9.158;2023-04-26T01:56:38;96749.84;;;6.69;100.00
13434;BME280;6789;47.678;9.158;2023-04-26T02:01:30;96744.63;;;6.62;100.00
13434;BME280;6789;47.678;9.158;2023-04-26T02:06:22;96734.63;;;6.66;100.00
13434;BME280;6789;47.678;9.158;2023-04-26T02:11:14;96735.41;;;6.73;100.00
13434;BME280;6789;47.678;9.158;2023-04-26T02:16:06;96724.41;;;6.71;100.00
13434;BME280;6789;47.678;9.158;2023-04-26T02:20:58;96725.81;;;6.73;100.00
13434;BME280;6789;47.678;9.158;2023-04-26T02:25:50;96719.78;;;6.73;100.00
13434;BME280;6789;47.678;9.158;2023-04-26T02:30:42;96717.38;;;6.65;100.00
13434;BME280;6789;47.678;9.158;2023-04-26T02:35:35;96710.16;;;6.54;100.00
13434;BME280;6789;47.678;9.158;2023-04-26T02:40:29;96717.94;;;6.35;100.00
13434;BME280;6789;47.678;9.158;2023-04-26T02:45:21;96723.53;;;6.19;100.00
13434;BME280;6789;47.678;9.158;2023-04-26T02:50:13;96718.50;;;6.04;100.00
13434;BME280;6789;47.678;9.158;2023-04-26T02:55:05;96701.06;;;5.98;100.00
13434;BME280;6789;47.678;9.158;2023-04-26T02:59:58;96697.22;;;5.94;100.00
13434;BME280;6789;47.678;9.158;2023-04-26T03:04:50;96699.81;;;5.88;100.00
13434;BME280;6789;47.678;9.158;2023-04-26T03:09:42;96702.81;;;5.78;100.00
13434;BME280;6789;47.678;9.158;2023-04-26T03:14:35;96698.72;;;5.69;100.00
13434;BME280;6789;47.678;9.158;2023-04-26T03:19:27;96697.31;;;5.67;100.00
13434;BME280;6789;47.678;9.158;2023-04-26T03:24:19;96702.72;;;5.65;100.00
13434;BME280;6789;47.678;9.158;2023-04-26T03:29:11;96705.91;;;5.67;100.00
13434;BME280;6789;47.678;9.158;2023-04-26T03:34:04;96699.53;;;5.70;100.00
13434;BME280;6789;47.678;9.158;2023-04-26T03:38:56;96705.16;;;5.73;100.00
13434;BME280;6789;47.678;9.158;2023-04-26T03:43:48;96701.53;;;5.74;100.00
13434;BME280;6789;47.678;9.158;2023-04-26T03:48:40;96691.34;;;5.73;100.00
13434;BME280;6789;47.678;9.158;2023-04-26T03:53:32;96687.94;;;5.72;100.00
13434;BME280;6789;47.678;9.158;2023-04-26T03:58:24;96687.41;;;5.83;100.00
13434;BME280;6789;47.678;9.158;2023-04-26T04:03:20;96700.25;;;5.91;100.00
13434;BME280;6789;47.678;9.158;2023-04-26T04:08:13;96699.63;;;5.96;100.00
13434;BME280;6789;47.678;9.158;2023-04-26T04:13:04;96691.84;;;6.02;100.00
13434;BME280;6789;47.678;9.158;2023-04-26T04:17:56;96683.88;;;6.10;100.00
13434;BME280;6789;47.678;9.158;2023-04-26T04:22:48;96684.66;;;6.17;100.00
13434;BME280;6789;47.678;9.158;2023-04-26T04:27:41;96702.13;;;6.23;100.00
13434;BME280;6789;47.678;9.158;2023-04-26T04:32:35;96706.91;;;6.26;100.00
13434;BME280;6789;47.678;9.158;2023-04-26T04:37:27;96710.13;;;6.35;100.00
13434;BME280;6789;47.678;9.158;2023-04-26T04:42:27;96710.13;;;6.35;100.00
13434;BME280;6789;47.678;9.158;2023-04-26T04:47:19;96710.53;;;6.32;100.00
13434;BME280;6789;47.678;9.158;2023-04-26T04:52:11;96713.34;;;6.43;100.00
13434;BME280;6789;47.678;9.158;2023-04-26T04:57:04;96720.56;;;6.47;100.00
13434;BME280;6789;47.678;9.158;2023-04-26T05:01:56;96712.16;;;6.58;100.00
13434;BME280;6789;47.678;9.158;2023-04-26T05:06:48;96720.19;;;6.83;100.00
13434;BME280;6789;47.678;9.158;2023-04-26T05:11:41;96721.38;;;7.00;100.00
13434;BME280;6789;47.678;9.158;2023-04-26T05:16:33;96733.19;;;7.21;100.00
13434;BME280;6789;47.678;9.158;2023-04-26T05:21:25;96741.38;;;7.44;100.00
13434;BME280;6789;47.678;9.158;2023-04-26T05:26:18;96746.72;;;7.62;100.00
13434;BME280;6789;47.678;9.158;2023-04-26T05:31:11;96751.97;;;8.19;100.00
13434;BME280;6789;47.678;9.158;2023-04-26T05:36:03;96783.03;;;8.70;100.00
13434;BME280;6789;47.678;9.158;2023-04-26T05:40:55;96785.16;;;9.11;100.00
13434;BME280;6789;47.678;9.158;2023-04-26T05:45:56;96789.16;;;9.13;100.00
13434;BME280;6789;47.678;9.158;2023-04-26T05:50:49;96792.22;;;9.28;100.00
13434;BME280;6789;47.678;9.158;2023-04-26T05:55:42;96797.69;;;9.26;100.00
13434;BME280;6789;47.678;9.158;2023-04-26T06:00:37;96807.16;;;9.27;100.00
13434;BME280;6789;47.678;9.158;2023-04-26T06:05:44;96798.69;;;9.50;100.00
13434;BME280;6789;47.678;9.158;2023-04-26T06:10:38;96798.84;;;9.55;100.00
13434;BME280;6789;47.678;9.158;2023-04-26T06:15:43;96807.28;;;9.57;99.90
13434;BME280;6789;47.678;9.158;2023-04-26T06:20:37;96812.00;;;9.24;100.00
13434;BME280;6789;47.678;9.158;2023-04-26T06:25:29;96809.00;;;9.45;100.00
13434;BME280;6789;47.678;9.158;2023-04-26T06:30:49;96811.41;;;9.46;99.63
13434;BME280;6789;47.678;9.158;2023-04-26T06:35:42;96818.81;;;9.49;98.59
13434;BME280;6789;47.678;9.158;2023-04-26T06:40:48;96820.50;;;9.44;99.45
13434;BME280;6789;47.678;9.158;2023-04-26T06:45:53;96824.28;;;9.48;99.13
13434;BME280;6789;47.678;9.158;2023-04-26T06:50:49;96826.66;;;9.49;98.54
13434;BME280;6789;47.678;9.158;2023-04-26T06:55:42;96830.00;;;9.81;96.69
13434;BME280;6789;47.678;9.158;2023-04-26T07:00:48;96823.81;;;9.93;96.75
13434;BME280;6789;47.678;9.158;2023-04-26T07:05:44;96815.50;;;10.20;95.43
13434;BME280;6789;47.678;9.158;2023-04-26T07:10:49;96817.88;;;10.40;93.22
13434;BME280;6789;47.678;9.158;2023-04-26T07:15:46;96822.84;;;10.48;93.93
13434;BME280;6789;47.678;9.158;2023-04-26T07:20:52;96815.41;;;10.45;92.87
13434;BME280;6789;47.678;9.158;2023-04-26T07:25:58;96812.84;;;10.56;91.82
13434;BME280;6789;47.678;9.158;2023-04-26T07:30:53;96820.84;;;10.61;90.27
13434;BME280;6789;47.678;9.158;2023-04-26T07:36:00;96815.81;;;9.88;92.96
13434;BME280;6789;47.678;9.158;2023-04-26T07:41:02;96810.25;;;10.38;91.81
13434;BME280;6789;47.678;9.158;2023-04-26T07:46:11;96803.19;;;10.21;91.71
13434;BME280;6789;47.678;9.158;2023-04-26T07:51:17;96813.50;;;10.52;89.23
13434;BME280;6789;47.678;9.158;2023-04-26T07:56:23;96803.91;;;10.75;88.43
13434;BME280;6789;47.678;9.158;2023-04-26T08:01:29;96805.63;;;10.81;85.82
13434;BME280;6789;47.678;9.158;2023-04-26T08:06:21;96799.81;;;10.79;84.95
13434;BME280;6789;47.678;9.158;2023-04-26T08:11:14;96803.44;;;10.78;84.35
13434;BME280;6789;47.678;9.158;2023-04-26T08:16:06;96799.50;;;10.98;83.90
13434;BME280;6789;47.678;9.158;2023-04-26T08:20:58;96803.44;;;10.78;85.75
13434;BME280;6789;47.678;9.158;2023-04-26T08:25:50;96796.03;;;11.16;85.86
13434;BME280;6789;47.678;9.158;2023-04-26T08:30:44;96796.50;;;11.13;84.35
13434;BME280;6789;47.678;9.158;2023-04-26T08:35:36;96796.94;;;11.33;83.81
13434;BME280;6789;47.678;9.158;2023-04-26T08:40:45;96793.56;;;11.43;82.67
13434;BME280;6789;47.678;9.158;2023-04-26T08:45:39;96803.75;;;11.63;82.06
13434;BME280;6789;47.678;9.158;2023-04-26T08:50:35;96805.06;;;12.11;76.92
13434;BME280;6789;47.678;9.158;2023-04-26T08:55:28;96801.34;;;12.46;76.33
13434;BME280;6789;47.678;9.158;2023-04-26T09:00:29;96806.34;;;12.76;72.84
13434;BME280;6789;47.678;9.158;2023-04-26T09:05:53;96804.19;;;13.00;72.31
13434;BME280;6789;47.678;9.158;2023-04-26T09:10:45;96798.41;;;13.64;70.44
13434;BME280;6789;47.678;9.158;2023-04-26T09:15:38;96808.22;;;12.64;72.66
13434;BME280;6789;47.678;9.158;2023-04-26T09:20:31;96802.19;;;12.63;72.10
13434;BME280;6789;47.678;9.158;2023-04-26T09:25:31;96799.91;;;12.55;70.25
13434;BME280;6789;47.678;9.158;2023-04-26T09:30:23;96801.28;;;12.85;69.98
13434;BME280;6789;47.678;9.158;2023-04-26T09:35:34;96790.91;;;13.56;67.58
13434;BME280;6789;47.678;9.158;2023-04-26T09:40:32;96787.31;;;14.37;64.58
13434;BME280;6789;47.678;9.158;2023-04-26T09:45:26;96781.84;;;14.92;61.01
13434;BME280;6789;47.678;9.158;2023-04-26T09:50:29;96783.13;;;14.89;61.81
13434;BME280;6789;47.678;9.158;2023-04-26T09:55:36;96785.63;;;14.53;62.10
13434;BME280;6789;47.678;9.158;2023-04-26T10:00:29;96787.47;;;13.72;62.75
13434;BME280;6789;47.678;9.158;2023-04-26T10:05:38;96779.44;;;13.83;64.78
13434;BME280;6789;47.678;9.158;2023-04-26T10:10:34;96774.69;;;14.02;60.73
13434;BME280;6789;47.678;9.158;2023-04-26T10:15:28;96774.25;;;14.26;59.04
13434;BME280;6789;47.678;9.158;2023-04-26T10:20:29;96782.94;;;14.48;56.29
13434;BME280;6789;47.678;9.158;2023-04-26T10:25:37;96780.97;;;13.79;56.04
13434;BME280;6789;47.678;9.158;2023-04-26T10:30:53;96770.06;;;14.30;57.70
13434;BME280;6789;47.678;9.158;2023-04-26T10:36:21;96753.13;;;15.00;58.29
13434;BME280;6789;47.678;9.158;2023-04-26T10:41:36;96739.69;;;14.75;58.27
13434;BME280;6789;47.678;9.158;2023-04-26T10:46:39;96740.97;;;14.73;58.38
13434;BME280;6789;47.678;9.158;2023-04-26T10:52:12;96729.84;;;15.23;56.87
13434;BME280;6789;47.678;9.158;2023-04-26T10:57:21;96741.88;;;15.14;54.52
13434;BME280;6789;47.678;9.158;2023-04-26T11:02:14;96733.47;;;15.95;47.70
13434;BME280;6789;47.678;9.158;2023-04-26T11:07:06;96737.34;;;15.10;46.53
13434;BME280;6789;47.678;9.158;2023-04-26T11:11:58;96727.63;;;14.84;47.98
13434;BME280;6789;47.678;9.158;2023-04-26T11:16:50;96709.97;;;15.21;46.30
13434;BME280;6789;47.678;9.158;2023-04-26T11:21:42;96715.06;;;15.64;45.74
13434;BME280;6789;47.678;9.158;2023-04-26T11:26:34;96714.69;;;15.14;46.84
13434;BME280;6789;47.678;9.158;2023-04-26T11:31:30;96705.25;;;15.23;46.39
13434;BME280;6789;47.678;9.158;2023-04-26T11:36:22;96701.72;;;15.49;47.23
13434;BME280;6789;47.678;9.158;2023-04-26T11:41:16;96702.63;;;15.64;45.66
13434;BME280;6789;47.678;9.158;2023-04-26T11:46:25;96693.28;;;15.47;46.07
13434;BME280;6789;47.678;9.158;2023-04-26T11:51:18;96689.22;;;15.75;46.59
13434;BME280;6789;47.678;9.158;2023-04-26T11:56:17;96699.06;;;15.95;44.92
13434;BME280;6789;47.678;9.158;2023-04-26T12:01:26;96695.97;;;16.13;45.99
13434;BME280;6789;47.678;9.158;2023-04-26T12:06:25;96691.66;;;16.58;44.71
13434;BME280;6789;47.678;9.158;2023-04-26T12:11:22;96699.91;;;16.86;43.53
13434;BME280;6789;47.678;9.158;2023-04-26T12:16:15;96693.25;;;16.69;43.92
13434;BME280;6789;47.678;9.158;2023-04-26T12:21:17;96704.41;;;16.96;43.81
13434;BME280;6789;47.678;9.158;2023-04-26T12:26:12;96713.91;;;16.67;43.25
13434;BME280;6789;47.678;9.158;2023-04-26T12:31:04;96708.06;;;16.65;42.46
13434;BME280;6789;47.678;9.158;2023-04-26T12:36:12;96693.78;;;16.76;43.48
13434;BME280;6789;47.678;9.158;2023-04-26T12:41:06;96696.97;;;16.98;43.52
13434;BME280;6789;47.678;9.158;2023-04-26T12:46:07;96690.91;;;17.17;42.68
13434;BME280;6789;47.678;9.158;2023-04-26T12:50:59;96693.28;;;17.14;41.45
13434;BME280;6789;47.678;9.158;2023-04-26T12:55:51;96693.22;;;16.49;42.22
13434;BME280;6789;47.678;9.158;2023-04-26T13:00:43;96677.78;;;16.26;42.32
13434;BME280;6789;47.678;9.158;2023-04-26T13:05:35;96676.75;;;16.32;43.28
13434;BME280;6789;47.678;9.158;2023-04-26T13:10:28;96672.59;;;16.76;41.70
13434;BME280;6789;47.678;9.158;2023-04-26T13:15:20;96672.09;;;16.89;42.04
13434;BME280;6789;47.678;9.158;2023-04-26T13:20:13;96671.81;;;16.95;41.31
13434;BME280;6789;47.678;9.158;2023-04-26T13:25:07;96676.84;;;17.07;40.96
13434;BME280;6789;47.678;9.158;2023-04-26T13:30:14;96674.41;;;16.45;41.11
13434;BME280;6789;47.678;9.158;2023-04-26T13:35:07;96658.69;;;16.14;41.64
13434;BME280;6789;47.678;9.158;2023-04-26T13:40:18;96660.56;;;16.24;42.18
13434;BME280;6789;47.678;9.158;2023-04-26T13:45:13;96652.94;;;16.42;41.87
13434;BME280;6789;47.678;9.158;2023-04-26T13:50:05;96651.31;;;16.26;40.62
13434;BME280;6789;47.678;9.158;2023-04-26T13:55:02;96643.88;;;16.23;41.00
13434;BME280;6789;47.678;9.158;2023-04-26T13:59:55;96639.44;;;16.34;40.71
13434;BME280;6789;47.678;9.158;2023-04-26T14:04:49;96634.16;;;16.39;40.59
13434;BME280;6789;47.678;9.158;2023-04-26T14:09:41;96635.75;;;16.44;39.79
13434;BME280;6789;47.678;9.158;2023-04-26T14:14:33;96631.25;;;16.60;41.79
13434;BME280;6789;47.678;9.158;2023-04-26T14:19:25;96624.91;;;17.01;40.26
13434;BME280;6789;47.678;9.158;2023-04-26T14:24:31;96646.59;;;16.38;40.69
13434;BME280;6789;47.678;9.158;2023-04-26T14:29:23;96641.44;;;16.07;41.18
13434;BME280;6789;47.678;9.158;2023-04-26T14:34:16;96628.84;;;16.34;41.05
13434;BME280;6789;47.678;9.158;2023-04-26T14:39:25;96635.47;;;16.36;40.18
13434;BME280;6789;47.678;9.158;2023-04-26T14:44:30;96636.00;;;16.33;40.17
13434;BME280;6789;47.678;9.158;2023-04-26T14:49:36;96630.06;;;15.96;40.97
13434;BME280;6789;47.678;9.158;2023-04-26T14:54:43;96626.88;;;15.89;41.73
13434;BME280;6789;47.678;9.158;2023-04-26T14:59:50;96629.59;;;16.19;40.61
13434;BME280;6789;47.678;9.158;2023-04-26T15:04:56;96632.78;;;16.26;40.96
13434;BME280;6789;47.678;9.158;2023-04-26T15:10:13;96622.25;;;16.56;40.49
13434;BME280;6789;47.678;9.158;2023-04-26T15:15:19;96616.44;;;16.89;39.13
13434;BME280;6789;47.678;9.158;2023-04-26T15:20:29;96628.88;;;17.08;39.14
13434;BME280;6789;47.678;9.158;2023-04-26T15:25:22;96631.25;;;17.19;40.08
13434;BME280;6789;47.678;9.158;2023-04-26T15:30:15;96627.84;;;16.84;39.19
13434;BME280;6789;47.678;9.158;2023-04-26T15:35:11;96626.50;;;16.87;46.75
13434;BME280;6789;47.678;9.158;2023-04-26T15:40:28;96623.59;;;16.73;47.22
13434;BME280;6789;47.678;9.158;2023-04-26T15:45:35;96607.97;;;16.62;47.63
13434;BME280;6789;47.678;9.158;2023-04-26T15:50:41;96609.31;;;16.79;45.70
13434;BME280;6789;47.678;9.158;2023-04-26T15:55:47;96599.50;;;16.70;46.44
13434;BME280;6789;47.678;9.158;2023-04-26T16:00:39;96604.78;;;16.80;45.18
13434;BME280;6789;47.678;9.158;2023-04-26T16:05:31;96615.38;;;16.40;44.89
13434;BME280;6789;47.678;9.158;2023-04-26T16:10:37;96601.53;;;16.08;44.98
13434;BME280;6789;47.678;9.158;2023-04-26T16:15:31;96597.00;;;15.99;46.24
13434;BME280;6789;47.678;9.158;2023-04-26T16:20:26;96608.19;;;15.50;45.04
13434;BME280;6789;47.678;9.158;2023-04-26T16:25:22;96607.97;;;15.15;46.24
13434;BME280;6789;47.678;9.158;2023-04-26T16:30:16;96611.59;;;15.45;45.87
13434;BME280;6789;47.678;9.158;2023-04-26T16:35:08;96617.97;;;15.49;45.08
13434;BME280;6789;47.678;9.158;2023-04-26T16:40:01;96616.84;;;15.40;45.45
13434;BME280;6789;47.678;9.158;2023-04-26T16:44:54;96616.00;;;15.35;44.28
13434;BME280;6789;47.678;9.158;2023-04-26T16:49:46;96612.84;;;15.33;45.46
13434;BME280;6789;47.678;9.158;2023-04-26T16:54:38;96615.66;;;15.21;45.10
13434;BME280;6789;47.678;9.158;2023-04-26T16:59:30;96618.22;;;14.70;46.27
13434;BME280;6789;47.678;9.158;2023-04-26T17:04:22;96612.16;;;14.43;46.58
13434;BME280;6789;47.678;9.158;2023-04-26T17:09:14;96614.28;;;14.41;46.67
13434;BME280;6789;47.678;9.158;2023-04-26T17:14:06;96619.34;;;14.22;49.08
13434;BME280;6789;47.678;9.158;2023-04-26T17:18:58;96615.06;;;14.16;49.25
13434;BME280;6789;47.678;9.158;2023-04-26T17:23:51;96615.53;;;13.86;50.86
13434;BME280;6789;47.678;9.158;2023-04-26T17:28:46;96618.78;;;13.72;52.73
13434;BME280;6789;47.678;9.158;2023-04-26T17:33:37;96617.06;;;13.61;53.88
13434;BME280;6789;47.678;9.158;2023-04-26T17:38:44;96623.44;;;13.44;54.45
13434;BME280;6789;47.678;9.158;2023-04-26T17:43:36;96645.09;;;13.29;55.20
13434;BME280;6789;47.678;9.158;2023-04-26T17:48:28;96636.25;;;13.19;56.20
13434;BME280;6789;47.678;9.158;2023-04-26T17:53:20;96640.19;;;13.16;55.62
13434;BME280;6789;47.678;9.158;2023-04-26T17:58:13;96664.19;;;13.20;56.74
13434;BME280;6789;47.678;9.158;2023-04-26T18:03:05;96653.41;;;13.21;57.24
13434;BME280;6789;47.678;9.158;2023-04-26T18:07:58;96652.31;;;13.17;58.15
13434;BME280;6789;47.678;9.158;2023-04-26T18:12:52;96657.91;;;13.04;59.08
13434;BME280;6789;47.678;9.158;2023-04-26T18:17:43;96659.63;;;12.82;60.03
13434;BME280;6789;47.678;9.158;2023-04-26T18:22:35;96664.41;;;12.69;61.70
13434;BME280;6789;47.678;9.158;2023-04-26T18:27:28;96665.38;;;12.63;62.41
13434;BME280;6789;47.678;9.158;2023-04-26T18:32:20;96676.53;;;12.54;62.70
13434;BME280;6789;47.678;9.158;2023-04-26T18:37:12;96673.69;;;12.44;62.94
13434;BME280;6789;47.678;9.158;2023-04-26T18:42:05;96675.38;;;12.33;62.64
13434;BME280;6789;47.678;9.158;2023-04-26T18:46:58;96685.94;;;12.22;63.54
13434;BME280;6789;47.678;9.158;2023-04-26T18:51:50;96684.25;;;12.16;63.97
13434;BME280;6789;47.678;9.158;2023-04-26T18:56:42;96694.09;;;12.09;64.75
13434;BME280;6789;47.678;9.158;2023-04-26T19:01:35;96695.38;;;12.07;65.16
13434;BME280;6789;47.678;9.158;2023-04-26T19:06:28;96701.41;;;12.07;65.33
13434;BME280;6789;47.678;9.158;2023-04-26T19:11:28;96710.31;;;12.06;65.55
13434;BME280;6789;47.678;9.158;2023-04-26T19:16:21;96708.75;;;12.05;66.04
13434;BME280;6789;47.678;9.158;2023-04-26T19:21:19;96708.03;;;12.09;66.24
13434;BME280;6789;47.678;9.158;2023-04-26T19:26:25;96713.53;;;12.08;66.24
13434;BME280;6789;47.678;9.158;2023-04-26T19:31:17;96716.63;;;12.05;66.54
13434;BME280;6789;47.678;9.158;2023-04-26T19:36:09;96724.03;;;12.08;66.83
13434;BME280;6789;47.678;9.158;2023-04-26T19:41:15;96734.09;;;12.11;67.55
13434;BME280;6789;47.678;9.158;2023-04-26T19:46:13;96729.06;;;12.09;67.84
13434;BME280;6789;47.678;9.158;2023-04-26T19:51:05;96742.09;;;12.05;68.95
13434;BME280;6789;47.678;9.158;2023-04-26T19:55:57;96743.13;;;12.15;69.27
13434;BME280;6789;47.678;9.158;2023-04-26T20:00:57;96749.31;;;12.09;69.72
13434;BME280;6789;47.678;9.158;2023-04-26T20:05:49;96743.94;;;12.04;69.63
13434;BME280;6789;47.678;9.158;2023-04-26T20:10:41;96745.31;;;11.95;71.20
13434;BME280;6789;47.678;9.158;2023-04-26T20:15:33;96739.72;;;11.92;71.80
13434;BME280;6789;47.678;9.158;2023-04-26T20:20:28;96748.00;;;11.84;72.56
13434;BME280;6789;47.678;9.158;2023-04-26T20:25:21;96756.00;;;11.77;73.13
13434;BME280;6789;47.678;9.158;2023-04-26T20:30:13;96757.50;;;11.73;75.35
13434;BME280;6789;47.678;9.158;2023-04-26T20:35:06;96756.56;;;11.68;75.67
13434;BME280;6789;47.678;9.158;2023-04-26T20:39:59;96756.81;;;11.78;75.43
13434;BME280;6789;47.678;9.158;2023-04-26T20:44:51;96749.50;;;11.68;76.06
13434;BME280;6789;47.678;9.158;2023-04-26T20:49:43;96761.47;;;11.64;75.88
13434;BME280;6789;47.678;9.158;2023-04-26T20:54:35;96768.81;;;11.51;75.94
13434;BME280;6789;47.678;9.158;2023-04-26T20:59:27;96774.06;;;11.51;76.76
13434;BME280;6789;47.678;9.158;2023-04-26T21:04:19;96773.13;;;11.34;76.81
13434;BME280;6789;47.678;9.158;2023-04-26T21:09:12;96768.97;;;11.27;75.63
13434;BME280;6789;47.678;9.158;2023-04-26T21:14:05;96775.94;;;11.33;74.53
13434;BME280;6789;47.678;9.158;2023-04-26T21:18:57;96779.28;;;11.28;73.70
13434;BME280;6789;47.678;9.158;2023-04-26T21:23:49;96776.84;;;11.27;74.26
13434;BME280;6789;47.678;9.158;2023-04-26T21:28:42;96772.06;;;11.24;73.55
13434;BME280;6789;47.678;9.158;2023-04-26T21:33:34;96765.81;;;11.25;74.83
13434;BME280;6789;47.678;9.158;2023-04-26T21:38:26;96774.91;;;11.34;75.10
13434;BME280;6789;47.678;9.158;2023-04-26T21:43:22;96772.88;;;11.36;76.10
13434;BME280;6789;47.678;9.158;2023-04-26T21:48:15;96777.91;;;11.37;76.84
13434;BME280;6789;47.678;9.158;2023-04-26T21:53:07;96781.09;;;11.39;76.54
13434;BME280;6789;47.678;9.158;2023-04-26T21:57:59;96774.00;;;11.39;75.96
13434;BME280;6789;47.678;9.158;2023-04-26T22:02:55;96777.81;;;11.43;75.37
13434;BME280;6789;47.678;9.158;2023-04-26T22:07:56;96784.28;;;11.41;76.11
13434;BME280;6789;47.678;9.158;2023-04-26T22:13:14;96789.88;;;11.44;77.55
13434;BME280;6789;47.678;9.158;2023-04-26T22:18:21;96798.22;;;11.41;79.22
13434;BME280;6789;47.678;9.158;2023-04-26T22:23:27;96784.28;;;11.41;79.30
13434;BME280;6789;47.678;9.158;2023-04-26T22:28:19;96796.84;;;11.28;80.22
13434;BME280;6789;47.678;9.158;2023-04-26T22:33:11;96799.94;;;11.25;81.04
13434;BME280;6789;47.678;9.158;2023-04-26T22:38:03;96804.13;;;11.26;81.44
13434;BME280;6789;47.678;9.158;2023-04-26T22:42:56;96800.28;;;11.28;81.06
13434;BME280;6789;47.678;9.158;2023-04-26T22:47:48;96807.53;;;11.15;82.63
13434;BME280;6789;47.678;9.158;2023-04-26T22:52:54;96824.78;;;11.11;83.81
13434;BME280;6789;47.678;9.158;2023-04-26T22:58:00;96817.22;;;11.03;86.34
13434;BME280;6789;47.678;9.158;2023-04-26T23:02:52;96823.34;;;10.97;88.57
13434;BME280;6789;47.678;9.158;2023-04-26T23:07:58;96822.28;;;10.86;89.75
13434;BME280;6789;47.678;9.158;2023-04-26T23:13:05;96813.16;;;10.77;92.96
13434;BME280;6789;47.678;9.158;2023-04-26T23:17:57;96817.59;;;10.77;97.21
13434;BME280;6789;47.678;9.158;2023-04-26T23:22:49;96823.28;;;10.74;100.00
13434;BME280;6789;47.678;9.158;2023-04-26T23:27:41;96825.50;;;10.59;100.00
13434;BME280;6789;47.678;9.158;2023-04-26T23:32:33;96820.00;;;10.49;100.00
13434;BME280;6789;47.678;9.158;2023-04-26T23:37:25;96827.03;;;10.49;100.00
13434;BME280;6789;47.678;9.158;2023-04-26T23:42:17;96819.13;;;10.37;100.00
13434;BME280;6789;47.678;9.158;2023-04-26T23:47:09;96827.13;;;10.42;100.00
13434;BME280;6789;47.678;9.158;2023-04-26T23:52:16;96829.16;;;10.40;100.00
13434;BME280;6789;47.678;9.158;2023-04-26T23:57:08;96814.03;;;10.42;100.00
